sensor_id;sensor_type;location;lat;lon;timestamp;pressure;altitude;pressure_sealevel;temperature;humidity
86740;BME280;77497;51.466;5.706;2024-03-29T00:01:45;99007.72;;;8.54;63.07
86740;BME280;77497;51.466;5.706;2024-03-29T00:04:11;99007.78;;;8.42;64.08
86740;BME280;77497;51.466;5.706;2024-03-29T00:06:36;99005.13;;;8.42;63.04
86740;BME280;77497;51.466;5.706;2024-03-29T00:09:01;98995.66;;;8.34;63.46
86740;BME280;77497;51.466;5.706;2024-03-29T00:11:27;98993.91;;;8.40;63.86
86740;BME280;77497;51.466;5.706;2024-03-29T00:13:52;98989.66;;;8.27;63.49
86740;BME280;77497;51.466;5.706;2024-03-29T00:16:18;98986.91;;;8.22;64.04
86740;BME280;77497;51.466;5.706;2024-03-29T00:18:43;98978.94;;;8.22;64.44
86740;BME280;77497;51.466;5.706;2024-03-29T00:21:09;98981.78;;;8.32;63.65
86740;BME280;77497;51.466;5.706;2024-03-29T00:23:34;98998.81;;;8.20;63.70
86740;BME280;77497;51.466;5.706;2024-03-29T00:25:59;99011.38;;;8.24;64.14
86740;BME280;77497;51.466;5.706;2024-03-29T00:28:24;99014.97;;;8.18;64.42
86740;BME280;77497;51.466;5.706;2024-03-29T00:30:50;99017.75;;;8.11;64.80
86740;BME280;77497;51.466;5.706;2024-03-29T00:33:15;99010.47;;;8.18;63.88
86740;BME280;77497;51.466;5.706;2024-03-29T00:35:40;99025.97;;;8.10;65.15
86740;BME280;77497;51.466;5.706;2024-03-29T00:38:06;99026.34;;;7.90;66.08
86740;BME280;77497;51.466;5.706;2024-03-29T00:40:31;99021.59;;;8.04;65.53
86740;BME280;77497;51.466;5.706;2024-03-29T00:42:56;99010.41;;;8.02;64.85
86740;BME280;77497;51.466;5.706;2024-03-29T00:45:22;99022.06;;;7.89;65.72
86740;BME280;77497;51.466;5.706;2024-03-29T00:47:47;99018.56;;;8.00;65.56
86740;BME280;77497;51.466;5.706;2024-03-29T00:50:12;99021.81;;;7.91;66.37
86740;BME280;77497;51.466;5.706;2024-03-29T00:52:38;99023.31;;;7.98;65.60
86740;BME280;77497;51.466;5.706;2024-03-29T00:55:03;99030.84;;;7.90;65.36
86740;BME280;77497;51.466;5.706;2024-03-29T00:57:30;99024.25;;;7.92;65.45
86740;BME280;77497;51.466;5.706;2024-03-29T00:59:55;99032.31;;;7.97;65.73
86740;BME280;77497;51.466;5.706;2024-03-29T01:02:23;99011.41;;;8.12;65.17
86740;BME280;77497;51.466;5.706;2024-03-29T01:04:49;99016.97;;;8.11;65.86
86740;BME280;77497;51.466;5.706;2024-03-29T01:07:15;99037.53;;;8.04;66.49
86740;BME280;77497;51.466;5.706;2024-03-29T01:09:42;99034.88;;;8.04;65.30
86740;BME280;77497;51.466;5.706;2024-03-29T01:12:09;99033.13;;;8.09;64.92
86740;BME280;77497;51.466;5.706;2024-03-29T01:14:34;99034.84;;;8.15;65.84
86740;BME280;77497;51.466;5.706;2024-03-29T01:16:59;99024.88;;;8.23;65.35
86740;BME280;77497;51.466;5.706;2024-03-29T01:19:25;99017.06;;;8.16;66.09
86740;BME280;77497;51.466;5.706;2024-03-29T01:21:50;99016.78;;;8.29;65.06
86740;BME280;77497;51.466;5.706;2024-03-29T01:24:15;99003.31;;;8.19;65.13
86740;BME280;77497;51.466;5.706;2024-03-29T01:26:41;99004.69;;;8.22;65.02
86740;BME280;77497;51.466;5.706;2024-03-29T01:29:06;99001.56;;;8.25;64.71
86740;BME280;77497;51.466;5.706;2024-03-29T01:31:31;99004.69;;;8.22;65.59
86740;BME280;77497;51.466;5.706;2024-03-29T01:33:57;99003.63;;;8.23;65.11
86740;BME280;77497;51.466;5.706;2024-03-29T01:36:23;98995.09;;;8.21;65.87
86740;BME280;77497;51.466;5.706;2024-03-29T01:38:49;98999.56;;;8.32;65.71
86740;BME280;77497;51.466;5.706;2024-03-29T01:41:16;98979.91;;;8.33;65.39
86740;BME280;77497;51.466;5.706;2024-03-29T01:43:42;98984.22;;;8.34;64.93
86740;BME280;77497;51.466;5.706;2024-03-29T01:46:07;98963.06;;;8.39;65.49
86740;BME280;77497;51.466;5.706;2024-03-29T01:48:33;98953.59;;;8.43;65.04
86740;BME280;77497;51.466;5.706;2024-03-29T01:50:59;98950.69;;;8.44;65.06
86740;BME280;77497;51.466;5.706;2024-03-29T01:53:26;98952.63;;;8.49;64.64
86740;BME280;77497;51.466;5.706;2024-03-29T01:55:52;98958.44;;;8.46;64.65
86740;BME280;77497;51.466;5.706;2024-03-29T01:58:19;98956.09;;;8.50;64.47
86740;BME280;77497;51.466;5.706;2024-03-29T02:00:52;98954.66;;;8.42;65.36
86740;BME280;77497;51.466;5.706;2024-03-29T02:03:19;98960.28;;;8.45;65.56
86740;BME280;77497;51.466;5.706;2024-03-29T02:05:46;98961.66;;;8.48;65.03
86740;BME280;77497;51.466;5.706;2024-03-29T02:08:12;98948.69;;;8.52;65.06
86740;BME280;77497;51.466;5.706;2024-03-29T02:10:37;98950.81;;;8.66;64.13
86740;BME280;77497;51.466;5.706;2024-03-29T02:13:03;98967.56;;;8.67;64.54
86740;BME280;77497;51.466;5.706;2024-03-29T02:15:32;98975.78;;;8.65;63.97
86740;BME280;77497;51.466;5.706;2024-03-29T02:17:58;98986.50;;;8.70;64.25
86740;BME280;77497;51.466;5.706;2024-03-29T02:20:23;98987.94;;;8.78;64.01
86740;BME280;77497;51.466;5.706;2024-03-29T02:23:02;98975.22;;;8.80;63.93
86740;BME280;77497;51.466;5.706;2024-03-29T02:25:31;98987.50;;;8.81;63.23
86740;BME280;77497;51.466;5.706;2024-03-29T02:27:57;98995.06;;;8.89;63.29
86740;BME280;77497;51.466;5.706;2024-03-29T02:30:23;98985.66;;;8.98;63.77
86740;BME280;77497;51.466;5.706;2024-03-29T02:32:50;99000.38;;;9.06;62.80
86740;BME280;77497;51.466;5.706;2024-03-29T02:35:15;99006.69;;;9.00;63.98
86740;BME280;77497;51.466;5.706;2024-03-29T02:37:40;98993.28;;;9.11;62.42
86740;BME280;77497;51.466;5.706;2024-03-29T02:40:06;98991.13;;;9.08;63.55
86740;BME280;77497;51.466;5.706;2024-03-29T02:42:34;98997.09;;;9.16;63.04
86740;BME280;77497;51.466;5.706;2024-03-29T02:45:01;98997.66;;;9.18;62.58
86740;BME280;77497;51.466;5.706;2024-03-29T02:47:26;99007.72;;;9.16;63.61
86740;BME280;77497;51.466;5.706;2024-03-29T02:49:51;99003.44;;;9.15;63.75
86740;BME280;77497;51.466;5.706;2024-03-29T02:52:17;99013.94;;;9.21;62.87
86740;BME280;77497;51.466;5.706;2024-03-29T02:54:42;99019.81;;;9.40;61.47
86740;BME280;77497;51.466;5.706;2024-03-29T02:57:08;99025.06;;;9.35;62.01
86740;BME280;77497;51.466;5.706;2024-03-29T02:59:33;99008.78;;;9.31;61.71
86740;BME280;77497;51.466;5.706;2024-03-29T03:01:58;99005.88;;;9.33;62.21
86740;BME280;77497;51.466;5.706;2024-03-29T03:04:24;99011.06;;;9.23;62.95
86740;BME280;77497;51.466;5.706;2024-03-29T03:06:49;99024.00;;;9.19;63.59
86740;BME280;77497;51.466;5.706;2024-03-29T03:09:14;99017.97;;;9.24;62.81
86740;BME280;77497;51.466;5.706;2024-03-29T03:12:15;99007.81;;;9.21;63.42
86740;BME280;77497;51.466;5.706;2024-03-29T03:14:41;99017.41;;;9.05;65.52
86740;BME280;77497;51.466;5.706;2024-03-29T03:17:07;99016.25;;;8.84;67.43
86740;BME280;77497;51.466;5.706;2024-03-29T03:19:32;99019.31;;;8.93;66.42
86740;BME280;77497;51.466;5.706;2024-03-29T03:21:57;99022.63;;;8.83;67.33
86740;BME280;77497;51.466;5.706;2024-03-29T03:24:23;99020.69;;;8.95;66.81
86740;BME280;77497;51.466;5.706;2024-03-29T03:26:48;99026.34;;;8.99;66.39
86740;BME280;77497;51.466;5.706;2024-03-29T03:29:13;99028.59;;;9.07;66.02
86740;BME280;77497;51.466;5.706;2024-03-29T03:31:39;99020.13;;;9.10;65.65
86740;BME280;77497;51.466;5.706;2024-03-29T03:34:04;99010.63;;;9.14;64.71
86740;BME280;77497;51.466;5.706;2024-03-29T03:36:29;99011.84;;;9.06;65.82
86740;BME280;77497;51.466;5.706;2024-03-29T03:38:55;99022.78;;;9.10;67.20
86740;BME280;77497;51.466;5.706;2024-03-29T03:41:20;99004.69;;;9.24;65.19
86740;BME280;77497;51.466;5.706;2024-03-29T03:43:45;99024.63;;;8.93;67.57
86740;BME280;77497;51.466;5.706;2024-03-29T03:46:11;99034.81;;;8.67;69.82
86740;BME280;77497;51.466;5.706;2024-03-29T03:48:36;99026.94;;;8.32;72.66
86740;BME280;77497;51.466;5.706;2024-03-29T03:51:01;99028.97;;;8.13;75.94
86740;BME280;77497;51.466;5.706;2024-03-29T03:53:26;99023.31;;;8.10;76.52
86740;BME280;77497;51.466;5.706;2024-03-29T03:55:52;99029.56;;;7.92;80.27
86740;BME280;77497;51.466;5.706;2024-03-29T03:58:17;99038.47;;;7.74;81.40
86740;BME280;77497;51.466;5.706;2024-03-29T04:00:43;99048.72;;;7.59;81.87
86740;BME280;77497;51.466;5.706;2024-03-29T04:03:08;99043.88;;;7.56;81.69
86740;BME280;77497;51.466;5.706;2024-03-29T04:05:36;99043.19;;;7.49;82.82
86740;BME280;77497;51.466;5.706;2024-03-29T04:08:02;99050.81;;;7.34;85.11
86740;BME280;77497;51.466;5.706;2024-03-29T04:10:28;99050.44;;;7.30;85.97
86740;BME280;77497;51.466;5.706;2024-03-29T04:12:53;99066.47;;;7.23;87.26
86740;BME280;77497;51.466;5.706;2024-03-29T04:15:18;99059.31;;;7.24;87.85
86740;BME280;77497;51.466;5.706;2024-03-29T04:17:43;99060.81;;;7.32;87.40
86740;BME280;77497;51.466;5.706;2024-03-29T04:20:09;99076.13;;;7.18;88.41
86740;BME280;77497;51.466;5.706;2024-03-29T04:22:35;99072.22;;;7.20;87.88
86740;BME280;77497;51.466;5.706;2024-03-29T04:25:00;99066.78;;;7.15;88.37
86740;BME280;77497;51.466;5.706;2024-03-29T04:27:28;99058.13;;;7.08;89.97
86740;BME280;77497;51.466;5.706;2024-03-29T04:29:54;99057.41;;;7.01;91.02
86740;BME280;77497;51.466;5.706;2024-03-29T04:32:20;99042.31;;;7.02;91.96
86740;BME280;77497;51.466;5.706;2024-03-29T04:34:49;99040.56;;;6.96;90.89
86740;BME280;77497;51.466;5.706;2024-03-29T04:37:15;99047.03;;;7.00;90.47
86740;BME280;77497;51.466;5.706;2024-03-29T04:39:42;99053.25;;;6.94;90.63
86740;BME280;77497;51.466;5.706;2024-03-29T04:42:13;99067.19;;;6.89;92.05
86740;BME280;77497;51.466;5.706;2024-03-29T04:47:41;99037.91;;;6.84;93.38
86740;BME280;77497;51.466;5.706;2024-03-29T04:50:17;99051.09;;;6.72;93.93
86740;BME280;77497;51.466;5.706;2024-03-29T04:52:45;99035.91;;;6.79;93.80
86740;BME280;77497;51.466;5.706;2024-03-29T04:55:15;99035.19;;;6.72;94.25
86740;BME280;77497;51.466;5.706;2024-03-29T04:57:43;99036.94;;;6.78;92.52
86740;BME280;77497;51.466;5.706;2024-03-29T05:00:09;99039.22;;;6.75;93.31
86740;BME280;77497;51.466;5.706;2024-03-29T05:02:42;99041.44;;;6.78;93.31
86740;BME280;77497;51.466;5.706;2024-03-29T05:05:18;99038.28;;;6.69;92.64
86740;BME280;77497;51.466;5.706;2024-03-29T05:07:47;99022.41;;;6.69;94.07
86740;BME280;77497;51.466;5.706;2024-03-29T05:10:21;99010.16;;;6.56;94.76
86740;BME280;77497;51.466;5.706;2024-03-29T05:12:49;99024.09;;;6.64;95.24
86740;BME280;77497;51.466;5.706;2024-03-29T05:15:14;99016.97;;;6.64;94.24
86740;BME280;77497;51.466;5.706;2024-03-29T05:17:53;99019.25;;;6.60;95.91
86740;BME280;77497;51.466;5.706;2024-03-29T05:20:19;99015.34;;;6.63;94.94
86740;BME280;77497;51.466;5.706;2024-03-29T05:22:47;99032.06;;;6.64;94.63
86740;BME280;77497;51.466;5.706;2024-03-29T05:25:13;99025.00;;;6.57;95.98
86740;BME280;77497;51.466;5.706;2024-03-29T05:27:41;99020.31;;;6.59;95.79
86740;BME280;77497;51.466;5.706;2024-03-29T05:30:10;99022.41;;;6.69;95.69
86740;BME280;77497;51.466;5.706;2024-03-29T05:32:43;99025.97;;;6.75;95.16
86740;BME280;77497;51.466;5.706;2024-03-29T05:35:09;99024.59;;;6.72;94.48
86740;BME280;77497;51.466;5.706;2024-03-29T05:37:36;99006.97;;;6.78;93.96
86740;BME280;77497;51.466;5.706;2024-03-29T05:40:02;99010.09;;;6.75;94.27
86740;BME280;77497;51.466;5.706;2024-03-29T05:42:32;99012.75;;;6.75;95.36
86740;BME280;77497;51.466;5.706;2024-03-29T05:45:20;99011.44;;;6.66;94.81
86740;BME280;77497;51.466;5.706;2024-03-29T05:47:47;99018.81;;;6.64;95.18
86740;BME280;77497;51.466;5.706;2024-03-29T05:50:12;99021.94;;;6.72;94.20
86740;BME280;77497;51.466;5.706;2024-03-29T05:52:44;99024.50;;;6.79;94.22
86740;BME280;77497;51.466;5.706;2024-03-29T05:55:09;99034.44;;;6.83;94.00
86740;BME280;77497;51.466;5.706;2024-03-29T05:57:38;99033.56;;;6.71;94.88
86740;BME280;77497;51.466;5.706;2024-03-29T06:00:06;99050.19;;;6.78;95.01
86740;BME280;77497;51.466;5.706;2024-03-29T06:02:32;99053.22;;;6.82;94.14
86740;BME280;77497;51.466;5.706;2024-03-29T06:04:57;99055.06;;;6.81;94.68
86740;BME280;77497;51.466;5.706;2024-03-29T06:07:22;99056.53;;;6.77;94.40
86740;BME280;77497;51.466;5.706;2024-03-29T06:09:48;99067.50;;;6.81;95.50
86740;BME280;77497;51.466;5.706;2024-03-29T06:12:13;99067.13;;;6.77;95.37
86740;BME280;77497;51.466;5.706;2024-03-29T06:14:39;99068.97;;;6.77;95.50
86740;BME280;77497;51.466;5.706;2024-03-29T06:17:23;99068.09;;;6.83;95.50
86740;BME280;77497;51.466;5.706;2024-03-29T06:19:52;99062.19;;;6.81;95.42
86740;BME280;77497;51.466;5.706;2024-03-29T06:22:21;99056.75;;;6.76;95.78
86740;BME280;77497;51.466;5.706;2024-03-29T06:24:46;99058.22;;;6.72;96.02
86740;BME280;77497;51.466;5.706;2024-03-29T06:27:13;99053.06;;;6.77;95.93
86740;BME280;77497;51.466;5.706;2024-03-29T06:29:42;99047.47;;;6.85;96.59
86740;BME280;77497;51.466;5.706;2024-03-29T06:32:08;99046.09;;;6.94;95.85
86740;BME280;77497;51.466;5.706;2024-03-29T06:34:33;99046.34;;;7.04;94.79
86740;BME280;77497;51.466;5.706;2024-03-29T06:36:59;99046.81;;;7.13;94.92
86740;BME280;77497;51.466;5.706;2024-03-29T06:39:24;99053.97;;;7.12;95.07
86740;BME280;77497;51.466;5.706;2024-03-29T06:41:51;99059.28;;;7.12;94.88
86740;BME280;77497;51.466;5.706;2024-03-29T06:44:16;99039.56;;;7.08;94.87
86740;BME280;77497;51.466;5.706;2024-03-29T06:46:42;99044.97;;;7.13;95.53
86740;BME280;77497;51.466;5.706;2024-03-29T06:49:07;99050.28;;;7.13;96.08
86740;BME280;77497;51.466;5.706;2024-03-29T06:51:32;99042.03;;;7.21;96.19
86740;BME280;77497;51.466;5.706;2024-03-29T06:53:58;99040.19;;;7.34;95.89
86740;BME280;77497;51.466;5.706;2024-03-29T06:56:23;99029.81;;;7.32;96.10
86740;BME280;77497;51.466;5.706;2024-03-29T06:58:48;99037.41;;;7.29;94.88
86740;BME280;77497;51.466;5.706;2024-03-29T07:01:14;99048.72;;;7.36;95.31
86740;BME280;77497;51.466;5.706;2024-03-29T07:03:40;99047.69;;;7.48;93.58
86740;BME280;77497;51.466;5.706;2024-03-29T07:06:05;99039.38;;;7.33;94.39
86740;BME280;77497;51.466;5.706;2024-03-29T07:08:31;99034.97;;;7.15;94.85
86740;BME280;77497;51.466;5.706;2024-03-29T07:11:00;99040.72;;;7.12;95.02
86740;BME280;77497;51.466;5.706;2024-03-29T07:13:28;99051.03;;;7.20;94.55
86740;BME280;77497;51.466;5.706;2024-03-29T07:15:54;99056.78;;;7.41;94.62
86740;BME280;77497;51.466;5.706;2024-03-29T07:18:19;99065.22;;;7.49;93.27
86740;BME280;77497;51.466;5.706;2024-03-29T07:20:44;99073.19;;;7.49;93.97
86740;BME280;77497;51.466;5.706;2024-03-29T07:23:10;99073.19;;;7.49;93.40
86740;BME280;77497;51.466;5.706;2024-03-29T07:25:37;99081.97;;;7.73;92.13
86740;BME280;77497;51.466;5.706;2024-03-29T07:28:02;99075.50;;;7.69;92.94
86740;BME280;77497;51.466;5.706;2024-03-29T07:30:28;99077.81;;;7.77;92.31
86740;BME280;77497;51.466;5.706;2024-03-29T07:32:53;99084.28;;;7.81;93.39
86740;BME280;77497;51.466;5.706;2024-03-29T07:35:19;99080.91;;;7.98;92.38
86740;BME280;77497;51.466;5.706;2024-03-29T07:37:44;99093.38;;;8.21;92.97
86740;BME280;77497;51.466;5.706;2024-03-29T07:40:14;99085.63;;;8.42;90.62
86740;BME280;77497;51.466;5.706;2024-03-29T07:42:40;99067.91;;;8.88;89.04
86740;BME280;77497;51.466;5.706;2024-03-29T07:45:06;99056.72;;;9.20;86.44
86740;BME280;77497;51.466;5.706;2024-03-29T07:47:32;99070.13;;;9.25;85.63
86740;BME280;77497;51.466;5.706;2024-03-29T07:49:57;99076.97;;;9.54;84.27
86740;BME280;77497;51.466;5.706;2024-03-29T07:52:22;99078.09;;;9.58;83.72
86740;BME280;77497;51.466;5.706;2024-03-29T07:54:48;99074.19;;;9.61;84.22
86740;BME280;77497;51.466;5.706;2024-03-29T07:57:14;99065.81;;;9.91;84.62
86740;BME280;77497;51.466;5.706;2024-03-29T07:59:41;99063.00;;;9.81;81.81
86740;BME280;77497;51.466;5.706;2024-03-29T08:02:06;99066.38;;;9.93;83.47
86740;BME280;77497;51.466;5.706;2024-03-29T08:04:32;99058.06;;;9.89;80.82
86740;BME280;77497;51.466;5.706;2024-03-29T08:06:57;99054.75;;;9.99;82.42
86740;BME280;77497;51.466;5.706;2024-03-29T08:09:23;99050.56;;;10.03;81.18
86740;BME280;77497;51.466;5.706;2024-03-29T08:11:48;99053.09;;;10.15;79.85
86740;BME280;77497;51.466;5.706;2024-03-29T08:14:13;99046.28;;;10.02;80.71
86740;BME280;77497;51.466;5.706;2024-03-29T08:16:39;99054.50;;;10.00;81.41
86740;BME280;77497;51.466;5.706;2024-03-29T08:19:04;99054.19;;;9.97;82.31
86740;BME280;77497;51.466;5.706;2024-03-29T08:21:30;99062.81;;;10.04;80.55
86740;BME280;77497;51.466;5.706;2024-03-29T08:23:55;99041.50;;;10.04;79.80
86740;BME280;77497;51.466;5.706;2024-03-29T08:26:22;99043.69;;;10.07;79.61
86740;BME280;77497;51.466;5.706;2024-03-29T08:28:47;99063.16;;;10.29;79.56
86740;BME280;77497;51.466;5.706;2024-03-29T08:31:12;99065.53;;;10.26;80.11
86740;BME280;77497;51.466;5.706;2024-03-29T08:33:38;99076.13;;;10.21;80.00
86740;BME280;77497;51.466;5.706;2024-03-29T08:36:05;99077.38;;;10.18;81.06
86740;BME280;77497;51.466;5.706;2024-03-29T08:38:30;99078.03;;;10.25;79.56
86740;BME280;77497;51.466;5.706;2024-03-29T08:40:56;99074.88;;;10.28;80.45
86740;BME280;77497;51.466;5.706;2024-03-29T08:43:21;99073.06;;;10.34;80.00
86740;BME280;77497;51.466;5.706;2024-03-29T08:45:47;99073.28;;;10.49;78.86
86740;BME280;77497;51.466;5.706;2024-03-29T08:48:13;99060.00;;;10.54;78.68
86740;BME280;77497;51.466;5.706;2024-03-29T08:50:39;99059.75;;;10.56;78.85
86740;BME280;77497;51.466;5.706;2024-03-29T08:53:05;99081.59;;;10.53;77.88
86740;BME280;77497;51.466;5.706;2024-03-29T08:55:31;99087.69;;;10.75;80.00
86740;BME280;77497;51.466;5.706;2024-03-29T08:58:00;99090.63;;;11.01;78.58
86740;BME280;77497;51.466;5.706;2024-03-29T09:00:27;99082.03;;;10.93;77.30
86740;BME280;77497;51.466;5.706;2024-03-29T09:02:53;99091.66;;;10.94;79.30
86740;BME280;77497;51.466;5.706;2024-03-29T09:05:19;99089.78;;;10.95;78.18
86740;BME280;77497;51.466;5.706;2024-03-29T09:07:44;99098.69;;;11.06;79.28
86740;BME280;77497;51.466;5.706;2024-03-29T09:10:11;99093.19;;;11.44;77.95
86740;BME280;77497;51.466;5.706;2024-03-29T09:12:40;99089.41;;;11.40;76.89
86740;BME280;77497;51.466;5.706;2024-03-29T09:15:05;99097.03;;;11.26;77.64
86740;BME280;77497;51.466;5.706;2024-03-29T09:17:34;99099.44;;;11.28;76.44
86740;BME280;77497;51.466;5.706;2024-03-29T09:19:59;99104.31;;;11.36;78.44
86740;BME280;77497;51.466;5.706;2024-03-29T09:22:25;99108.22;;;11.55;78.85
86740;BME280;77497;51.466;5.706;2024-03-29T09:24:50;99110.72;;;11.67;76.36
86740;BME280;77497;51.466;5.706;2024-03-29T09:27:15;99104.06;;;11.70;75.67
86740;BME280;77497;51.466;5.706;2024-03-29T09:29:42;99095.59;;;11.78;76.63
86740;BME280;77497;51.466;5.706;2024-03-29T09:32:08;99099.56;;;12.12;73.82
86740;BME280;77497;51.466;5.706;2024-03-29T09:34:33;99103.66;;;12.25;74.49
86740;BME280;77497;51.466;5.706;2024-03-29T09:36:59;99115.47;;;12.39;75.02
86740;BME280;77497;51.466;5.706;2024-03-29T09:39:24;99124.66;;;12.59;73.85
86740;BME280;77497;51.466;5.706;2024-03-29T09:41:50;99130.41;;;12.88;71.83
86740;BME280;77497;51.466;5.706;2024-03-29T09:44:16;99131.88;;;13.56;71.12
86740;BME280;77497;51.466;5.706;2024-03-29T09:46:42;99147.63;;;14.34;69.96
86740;BME280;77497;51.466;5.706;2024-03-29T09:49:08;99144.03;;;14.79;67.07
86740;BME280;77497;51.466;5.706;2024-03-29T09:51:35;99142.97;;;15.29;62.70
86740;BME280;77497;51.466;5.706;2024-03-29T09:54:03;99137.94;;;15.57;62.53
86740;BME280;77497;51.466;5.706;2024-03-29T09:56:29;99145.75;;;15.58;63.47
86740;BME280;77497;51.466;5.706;2024-03-29T09:58:55;99140.81;;;15.31;62.98
86740;BME280;77497;51.466;5.706;2024-03-29T10:01:20;99153.22;;;15.22;63.73
86740;BME280;77497;51.466;5.706;2024-03-29T10:03:49;99158.06;;;15.25;62.70
86740;BME280;77497;51.466;5.706;2024-03-29T10:06:15;99147.47;;;15.39;63.46
86740;BME280;77497;51.466;5.706;2024-03-29T10:08:44;99157.31;;;15.10;63.61
86740;BME280;77497;51.466;5.706;2024-03-29T10:11:10;99149.34;;;15.39;62.81
86740;BME280;77497;51.466;5.706;2024-03-29T10:13:35;99141.63;;;15.71;62.46
86740;BME280;77497;51.466;5.706;2024-03-29T10:16:01;99138.94;;;16.00;60.52
86740;BME280;77497;51.466;5.706;2024-03-29T10:18:28;99129.47;;;16.84;59.45
86740;BME280;77497;51.466;5.706;2024-03-29T10:21:06;99127.44;;;17.14;58.17
86740;BME280;77497;51.466;5.706;2024-03-29T10:23:35;99133.34;;;16.73;56.70
86740;BME280;77497;51.466;5.706;2024-03-29T10:26:04;99142.16;;;16.31;59.97
86740;BME280;77497;51.466;5.706;2024-03-29T10:28:33;99133.72;;;16.14;59.26
86740;BME280;77497;51.466;5.706;2024-03-29T10:31:01;99138.69;;;16.02;59.95
86740;BME280;77497;51.466;5.706;2024-03-29T10:33:31;99129.72;;;16.11;60.26
86740;BME280;77497;51.466;5.706;2024-03-29T10:36:00;99135.16;;;16.06;58.89
86740;BME280;77497;51.466;5.706;2024-03-29T10:38:27;99144.34;;;16.53;59.44
86740;BME280;77497;51.466;5.706;2024-03-29T10:40:53;99147.81;;;17.01;57.02
86740;BME280;77497;51.466;5.706;2024-03-29T10:43:19;99142.34;;;17.06;55.49
86740;BME280;77497;51.466;5.706;2024-03-29T10:45:48;99131.28;;;17.08;55.13
86740;BME280;77497;51.466;5.706;2024-03-29T10:48:16;99141.69;;;17.14;55.61
86740;BME280;77497;51.466;5.706;2024-03-29T10:50:43;99161.47;;;16.62;58.04
86740;BME280;77497;51.466;5.706;2024-03-29T10:53:09;99160.84;;;16.46;56.66
86740;BME280;77497;51.466;5.706;2024-03-29T10:55:36;99155.97;;;16.48;57.01
86740;BME280;77497;51.466;5.706;2024-03-29T10:58:03;99160.16;;;16.59;57.24
86740;BME280;77497;51.466;5.706;2024-03-29T11:00:32;99181.13;;;16.34;58.00
86740;BME280;77497;51.466;5.706;2024-03-29T11:05:45;99172.88;;;15.62;57.36
86740;BME280;77497;51.466;5.706;2024-03-29T11:08:14;99172.56;;;16.03;56.55
86740;BME280;77497;51.466;5.706;2024-03-29T11:10:44;99175.41;;;15.82;56.55
86740;BME280;77497;51.466;5.706;2024-03-29T11:13:23;99180.44;;;15.50;56.64
86740;BME280;77497;51.466;5.706;2024-03-29T11:15:52;99154.72;;;14.94;59.46
86740;BME280;77497;51.466;5.706;2024-03-29T11:18:19;99143.75;;;14.81;59.00
86740;BME280;77497;51.466;5.706;2024-03-29T11:20:46;99127.13;;;14.79;59.27
86740;BME280;77497;51.466;5.706;2024-03-29T11:23:21;99131.03;;;15.46;57.93
86740;BME280;77497;51.466;5.706;2024-03-29T11:25:52;99142.94;;;16.08;57.36
86740;BME280;77497;51.466;5.706;2024-03-29T11:28:30;99156.06;;;17.47;51.70
86740;BME280;77497;51.466;5.706;2024-03-29T11:35:59;99172.72;;;16.93;52.87
86740;BME280;77497;51.466;5.706;2024-03-29T11:38:35;99187.63;;;16.85;51.00
86740;BME280;77497;51.466;5.706;2024-03-29T11:41:11;99175.00;;;16.28;52.79
86740;BME280;77497;51.466;5.706;2024-03-29T11:43:37;99183.94;;;15.89;53.18
86740;BME280;77497;51.466;5.706;2024-03-29T11:46:06;99177.97;;;16.55;52.82
86740;BME280;77497;51.466;5.706;2024-03-29T11:48:32;99173.41;;;17.79;51.69
86740;BME280;77497;51.466;5.706;2024-03-29T11:50:58;99175.47;;;19.16;47.37
86740;BME280;77497;51.466;5.706;2024-03-29T11:53:24;99172.53;;;20.51;43.29
86740;BME280;77497;51.466;5.706;2024-03-29T11:55:50;99180.31;;;20.22;42.45
86740;BME280;77497;51.466;5.706;2024-03-29T11:58:23;99185.19;;;20.11;43.76
86740;BME280;77497;51.466;5.706;2024-03-29T12:00:49;99191.94;;;20.84;41.41
86740;BME280;77497;51.466;5.706;2024-03-29T12:03:16;99197.97;;;20.42;43.71
86740;BME280;77497;51.466;5.706;2024-03-29T12:05:46;99179.16;;;19.20;43.27
86740;BME280;77497;51.466;5.706;2024-03-29T12:08:11;99205.69;;;19.18;44.62
86740;BME280;77497;51.466;5.706;2024-03-29T12:10:37;99191.84;;;20.67;41.18
86740;BME280;77497;51.466;5.706;2024-03-29T12:13:04;99189.13;;;22.36;38.48
86740;BME280;77497;51.466;5.706;2024-03-29T12:15:30;99183.56;;;21.98;39.16
86740;BME280;77497;51.466;5.706;2024-03-29T12:18:03;99198.28;;;21.88;40.72
86740;BME280;77497;51.466;5.706;2024-03-29T12:20:31;99192.75;;;20.93;41.01
86740;BME280;77497;51.466;5.706;2024-03-29T12:23:00;99189.97;;;20.14;41.69
86740;BME280;77497;51.466;5.706;2024-03-29T12:25:28;99191.69;;;19.88;42.49
86740;BME280;77497;51.466;5.706;2024-03-29T12:27:53;99198.06;;;21.16;40.50
86740;BME280;77497;51.466;5.706;2024-03-29T12:30:19;99202.81;;;20.53;41.43
86740;BME280;77497;51.466;5.706;2024-03-29T12:32:44;99201.03;;;19.59;43.89
86740;BME280;77497;51.466;5.706;2024-03-29T12:35:11;99204.81;;;19.58;44.06
86740;BME280;77497;51.466;5.706;2024-03-29T12:37:37;99194.81;;;22.05;39.79
86740;BME280;77497;51.466;5.706;2024-03-29T12:40:06;99202.25;;;23.61;37.10
86740;BME280;77497;51.466;5.706;2024-03-29T12:42:38;99203.50;;;24.05;32.87
86740;BME280;77497;51.466;5.706;2024-03-29T12:45:04;99204.97;;;23.10;35.80
86740;BME280;77497;51.466;5.706;2024-03-29T12:47:30;99201.81;;;21.46;37.49
86740;BME280;77497;51.466;5.706;2024-03-29T12:49:59;99205.34;;;20.89;42.19
86740;BME280;77497;51.466;5.706;2024-03-29T12:52:25;99202.44;;;22.67;37.50
86740;BME280;77497;51.466;5.706;2024-03-29T12:54:50;99201.16;;;21.92;38.00
86740;BME280;77497;51.466;5.706;2024-03-29T12:57:16;99211.72;;;20.54;40.82
86740;BME280;77497;51.466;5.706;2024-03-29T12:59:41;99203.81;;;20.13;44.78
86740;BME280;77497;51.466;5.706;2024-03-29T13:02:08;99203.94;;;19.85;44.02
86740;BME280;77497;51.466;5.706;2024-03-29T13:04:33;99202.31;;;18.98;45.98
86740;BME280;77497;51.466;5.706;2024-03-29T13:06:58;99210.09;;;18.59;44.86
86740;BME280;77497;51.466;5.706;2024-03-29T13:09:24;99215.69;;;18.48;47.66
86740;BME280;77497;51.466;5.706;2024-03-29T13:11:49;99216.59;;;18.11;45.66
86740;BME280;77497;51.466;5.706;2024-03-29T13:14:14;99203.94;;;18.39;47.40
86740;BME280;77497;51.466;5.706;2024-03-29T13:16:40;99205.78;;;18.44;49.12